sensor_id;sensor_type;location;lat;lon;timestamp;P1;durP1;ratioP1;P2;durP2;ratioP2
48006;SDS011;33771;48.180;11.400;2023-03-01T00:01:39;28.60;;;18.23;;
48006;SDS011;33771;48.180;11.400;2023-03-01T00:04:04;27.77;;;18.17;;
48006;SDS011;33771;48.180;11.400;2023-03-01T00:06:30;27.20;;;17.63;;
48006;SDS011;33771;48.180;11.400;2023-03-01T00:08:56;26.53;;;17.90;;
48006;SDS011;33771;48.180;11.400;2023-03-01T00:11:23;26.00;;;17.83;;
48006;SDS011;33771;48.180;11.400;2023-03-01T00:13:51;34.23;;;18.80;;
48006;SDS011;33771;48.180;11.400;2023-03-01T00:16:20;28.70;;;18.67;;
48006;SDS011;33771;48.180;11.400;2023-03-01T00:18:48;30.00;;;18.70;;
48006;SDS011;33771;48.180;11.400;2023-03-01T00:21:15;29.63;;;18.73;;
48006;SDS011;33771;48.180;11.400;2023-03-01T00:23:41;31.43;;;18.87;;
48006;SDS011;33771;48.180;11.400;2023-03-01T00:26:08;27.10;;;17.90;;
48006;SDS011;33771;48.180;11.400;2023-03-01T00:28:36;29.47;;;19.33;;
48006;SDS011;33771;48.180;11.400;2023-03-01T00:31:02;26.57;;;17.97;;
48006;SDS011;33771;48.180;11.400;2023-03-01T00:33:29;30.27;;;17.87;;
48006;SDS011;33771;48.180;11.400;2023-03-01T00:35:57;28.20;;;19.07;;
48006;SDS011;33771;48.180;11.400;2023-03-01T00:38:23;28.07;;;17.70;;
48006;SDS011;33771;48.180;11.400;2023-03-01T00:40:49;27.83;;;17.80;;
48006;SDS011;33771;48.180;11.400;2023-03-01T00:43:14;29.10;;;17.73;;
48006;SDS011;33771;48.180;11.400;2023-03-01T00:45:40;26.30;;;17.30;;
48006;SDS011;33771;48.180;11.400;2023-03-01T00:48:05;31.33;;;17.77;;
48006;SDS011;33771;48.180;11.400;2023-03-01T00:50:31;28.80;;;18.67;;
48006;SDS011;33771;48.180;11.400;2023-03-01T00:52:57;29.23;;;17.77;;
48006;SDS011;33771;48.180;11.400;2023-03-01T00:55:22;28.00;;;18.63;;
48006;SDS011;33771;48.180;11.400;2023-03-01T00:57:48;29.20;;;18.60;;
48006;SDS011;33771;48.180;11.400;2023-03-01T01:00:14;29.97;;;18.30;;
48006;SDS011;33771;48.180;11.400;2023-03-01T01:02:40;30.20;;;18.00;;
48006;SDS011;33771;48.180;11.400;2023-03-01T01:05:05;25.87;;;17.77;;
48006;SDS011;33771;48.180;11.400;2023-03-01T01:07:31;27.83;;;18.00;;
48006;SDS011;33771;48.180;11.400;2023-03-01T01:09:57;26.73;;;17.77;;
48006;SDS011;33771;48.180;11.400;2023-03-01T01:12:23;30.63;;;18.20;;
48006;SDS011;33771;48.180;11.400;2023-03-01T01:14:48;29.30;;;18.27;;
48006;SDS011;33771;48.180;11.400;2023-03-01T01:17:14;29.10;;;18.07;;
48006;SDS011;33771;48.180;11.400;2023-03-01T01:19:39;26.20;;;17.50;;
48006;SDS011;33771;48.180;11.400;2023-03-01T01:22:05;25.70;;;17.63;;
48006;SDS011;33771;48.180;11.400;2023-03-01T01:24:31;26.57;;;17.00;;
48006;SDS011;33771;48.180;11.400;2023-03-01T01:26:56;29.90;;;17.27;;
48006;SDS011;33771;48.180;11.400;2023-03-01T01:29:22;35.13;;;18.63;;
48006;SDS011;33771;48.180;11.400;2023-03-01T01:31:47;27.73;;;17.70;;
48006;SDS011;33771;48.180;11.400;2023-03-01T01:34:17;26.43;;;17.87;;
48006;SDS011;33771;48.180;11.400;2023-03-01T01:36:47;29.53;;;17.80;;
48006;SDS011;33771;48.180;11.400;2023-03-01T01:39:14;29.83;;;18.47;;
48006;SDS011;33771;48.180;11.400;2023-03-01T01:41:41;25.00;;;17.00;;
48006;SDS011;33771;48.180;11.400;2023-03-01T01:44:11;26.30;;;17.20;;
48006;SDS011;33771;48.180;11.400;2023-03-01T01:46:38;30.53;;;18.40;;
48006;SDS011;33771;48.180;11.400;2023-03-01T01:52:10;30.90;;;17.73;;
48006;SDS011;33771;48.180;11.400;2023-03-01T01:54:51;29.23;;;18.70;;
48006;SDS011;33771;48.180;11.400;2023-03-01T01:57:20;27.80;;;17.70;;
48006;SDS011;33771;48.180;11.400;2023-03-01T01:59:50;26.27;;;17.97;;
48006;SDS011;33771;48.180;11.400;2023-03-01T02:02:19;24.37;;;16.30;;
48006;SDS011;33771;48.180;11.400;2023-03-01T02:04:46;25.50;;;17.00;;
48006;SDS011;33771;48.180;11.400;2023-03-01T02:07:15;28.10;;;17.80;;
48006;SDS011;33771;48.180;11.400;2023-03-01T02:09:45;30.87;;;18.60;;
48006;SDS011;33771;48.180;11.400;2023-03-01T02:12:13;27.53;;;16.97;;
48006;SDS011;33771;48.180;11.400;2023-03-01T02:14:42;26.43;;;17.87;;
48006;SDS011;33771;48.180;11.400;2023-03-01T02:17:07;29.70;;;18.67;;
48006;SDS011;33771;48.180;11.400;2023-03-01T02:22:30;31.23;;;18.33;;
48006;SDS011;33771;48.180;11.400;2023-03-01T02:28:29;25.23;;;15.90;;
48006;SDS011;33771;48.180;11.400;2023-03-01T02:30:41;26.87;;;17.20;;
48006;SDS011;33771;48.180;11.400;2023-03-01T02:33:27;28.30;;;17.83;;
48006;SDS011;33771;48.180;11.400;2023-03-01T02:35:57;25.13;;;16.93;;
48006;SDS011;33771;48.180;11.400;2023-03-01T02:38:25;26.90;;;17.77;;
48006;SDS011;33771;48.180;11.400;2023-03-01T02:40:52;28.20;;;16.90;;
48006;SDS011;33771;48.180;11.400;2023-03-01T02:43:22;27.80;;;17.07;;
48006;SDS011;33771;48.180;11.400;2023-03-01T02:45:53;26.80;;;16.73;;
48006;SDS011;33771;48.180;11.400;2023-03-01T02:48:23;29.43;;;17.83;;
48006;SDS011;33771;48.180;11.400;2023-03-01T02:53:34;28.47;;;17.17;;
48006;SDS011;33771;48.180;11.400;2023-03-01T02:56:00;26.90;;;17.83;;
48006;SDS011;33771;48.180;11.400;2023-03-01T02:58:26;29.03;;;17.60;;
48006;SDS011;33771;48.180;11.400;2023-03-01T03:00:52;29.63;;;17.63;;
48006;SDS011;33771;48.180;11.400;2023-03-01T03:03:19;29.80;;;17.73;;
48006;SDS011;33771;48.180;11.400;2023-03-01T03:05:46;27.10;;;17.43;;
48006;SDS011;33771;48.180;11.400;2023-03-01T03:08:13;28.27;;;17.67;;
48006;SDS011;33771;48.180;11.400;2023-03-01T03:10:41;27.80;;;17.17;;
48006;SDS011;33771;48.180;11.400;2023-03-01T03:13:12;25.37;;;17.77;;
48006;SDS011;33771;48.180;11.400;2023-03-01T03:15:39;26.80;;;17.17;;
48006;SDS011;33771;48.180;11.400;2023-03-01T03:18:08;25.07;;;17.23;;
48006;SDS011;33771;48.180;11.400;2023-03-01T03:20:35;29.13;;;17.17;;
48006;SDS011;33771;48.180;11.400;2023-03-01T03:23:04;28.27;;;17.80;;
48006;SDS011;33771;48.180;11.400;2023-03-01T03:25:30;30.77;;;18.23;;
48006;SDS011;33771;48.180;11.400;2023-03-01T03:27:56;27.13;;;17.47;;
48006;SDS011;33771;48.180;11.400;2023-03-01T03:30:24;27.27;;;17.63;;
48006;SDS011;33771;48.180;11.400;2023-03-01T03:32:51;26.97;;;18.03;;
48006;SDS011;33771;48.180;11.400;2023-03-01T03:35:17;26.37;;;17.73;;
48006;SDS011;33771;48.180;11.400;2023-03-01T03:37:51;25.40;;;16.60;;
48006;SDS011;33771;48.180;11.400;2023-03-01T03:40:26;27.17;;;17.87;;
48006;SDS011;33771;48.180;11.400;2023-03-01T03:42:58;26.83;;;18.40;;
48006;SDS011;33771;48.180;11.400;2023-03-01T03:45:23;29.70;;;17.80;;
48006;SDS011;33771;48.180;11.400;2023-03-01T03:47:49;26.27;;;18.50;;
48006;SDS011;33771;48.180;11.400;2023-03-01T03:50:15;28.03;;;18.37;;
48006;SDS011;33771;48.180;11.400;2023-03-01T03:52:42;25.30;;;17.90;;
48006;SDS011;33771;48.180;11.400;2023-03-01T03:55:08;28.03;;;18.43;;
48006;SDS011;33771;48.180;11.400;2023-03-01T03:57:39;25.27;;;16.87;;
48006;SDS011;33771;48.180;11.400;2023-03-01T04:00:07;28.70;;;18.97;;
48006;SDS011;33771;48.180;11.400;2023-03-01T04:02:40;27.50;;;18.17;;
48006;SDS011;33771;48.180;11.400;2023-03-01T04:05:07;29.40;;;17.77;;
48006;SDS011;33771;48.180;11.400;2023-03-01T04:07:34;30.50;;;18.33;;
48006;SDS011;33771;48.180;11.400;2023-03-01T04:10:02;28.63;;;18.20;;
48006;SDS011;33771;48.180;11.400;2023-03-01T04:12:28;27.80;;;18.30;;
48006;SDS011;33771;48.180;11.400;2023-03-01T04:14:54;27.10;;;18.67;;
48006;SDS011;33771;48.180;11.400;2023-03-01T04:17:19;27.77;;;18.20;;
48006;SDS011;33771;48.180;11.400;2023-03-01T04:19:45;26.67;;;18.03;;
48006;SDS011;33771;48.180;11.400;2023-03-01T04:22:13;26.80;;;18.20;;
48006;SDS011;33771;48.180;11.400;2023-03-01T04:24:42;32.80;;;19.67;;
48006;SDS011;33771;48.180;11.400;2023-03-01T04:27:08;28.67;;;18.90;;
48006;SDS011;33771;48.180;11.400;2023-03-01T04:29:34;28.30;;;18.10;;
48006;SDS011;33771;48.180;11.400;2023-03-01T04:31:59;27.77;;;17.30;;
48006;SDS011;33771;48.180;11.400;2023-03-01T04:34:25;33.13;;;19.17;;
48006;SDS011;33771;48.180;11.400;2023-03-01T04:36:51;28.37;;;18.70;;
48006;SDS011;33771;48.180;11.400;2023-03-01T04:39:17;24.97;;;17.17;;
48006;SDS011;33771;48.180;11.400;2023-03-01T04:41:43;27.23;;;17.93;;
48006;SDS011;33771;48.180;11.400;2023-03-01T04:44:09;28.63;;;19.37;;
48006;SDS011;33771;48.180;11.400;2023-03-01T04:46:35;28.73;;;18.93;;
48006;SDS011;33771;48.180;11.400;2023-03-01T04:49:01;25.07;;;17.70;;
48006;SDS011;33771;48.180;11.400;2023-03-01T04:51:27;29.10;;;19.17;;
48006;SDS011;33771;48.180;11.400;2023-03-01T04:53:53;27.37;;;18.40;;
48006;SDS011;33771;48.180;11.400;2023-03-01T04:56:19;29.33;;;18.50;;
48006;SDS011;33771;48.180;11.400;2023-03-01T04:58:47;30.60;;;16.87;;
48006;SDS011;33771;48.180;11.400;2023-03-01T05:01:15;34.37;;;18.97;;
48006;SDS011;33771;48.180;11.400;2023-03-01T05:03:42;27.97;;;17.57;;
48006;SDS011;33771;48.180;11.400;2023-03-01T05:06:09;26.83;;;17.13;;
48006;SDS011;33771;48.180;11.400;2023-03-01T05:08:35;30.63;;;18.27;;
48006;SDS011;33771;48.180;11.400;2023-03-01T05:11:02;28.23;;;18.43;;
48006;SDS011;33771;48.180;11.400;2023-03-01T05:13:27;36.33;;;19.37;;
48006;SDS011;33771;48.180;11.400;2023-03-01T05:15:54;30.60;;;19.57;;
48006;SDS011;33771;48.180;11.400;2023-03-01T05:18:22;27.93;;;18.10;;
48006;SDS011;33771;48.180;11.400;2023-03-01T05:20:50;26.50;;;17.63;;
48006;SDS011;33771;48.180;11.400;2023-03-01T05:23:17;28.53;;;18.77;;
48006;SDS011;33771;48.180;11.400;2023-03-01T05:25:43;31.97;;;19.70;;
48006;SDS011;33771;48.180;11.400;2023-03-01T05:28:12;30.10;;;19.53;;
48006;SDS011;33771;48.180;11.400;2023-03-01T05:30:38;41.97;;;25.27;;
48006;SDS011;33771;48.180;11.400;2023-03-01T05:33:04;49.63;;;29.93;;
48006;SDS011;33771;48.180;11.400;2023-03-01T05:35:35;36.93;;;22.83;;
48006;SDS011;33771;48.180;11.400;2023-03-01T05:38:01;29.67;;;18.53;;
48006;SDS011;33771;48.180;11.400;2023-03-01T05:40:26;32.43;;;20.17;;
48006;SDS011;33771;48.180;11.400;2023-03-01T05:42:55;27.83;;;19.43;;
48006;SDS011;33771;48.180;11.400;2023-03-01T05:45:23;32.77;;;20.37;;
48006;SDS011;33771;48.180;11.400;2023-03-01T05:47:50;36.60;;;21.37;;
48006;SDS011;33771;48.180;11.400;2023-03-01T05:50:20;36.67;;;22.57;;
48006;SDS011;33771;48.180;11.400;2023-03-01T05:53:00;34.17;;;20.50;;
48006;SDS011;33771;48.180;11.400;2023-03-01T05:55:29;37.47;;;23.03;;
48006;SDS011;33771;48.180;11.400;2023-03-01T05:57:57;32.37;;;20.77;;
48006;SDS011;33771;48.180;11.400;2023-03-01T06:00:24;31.00;;;19.73;;
48006;SDS011;33771;48.180;11.400;2023-03-01T06:02:50;32.73;;;19.57;;
48006;SDS011;33771;48.180;11.400;2023-03-01T06:05:17;34.97;;;19.37;;
48006;SDS011;33771;48.180;11.400;2023-03-01T06:07:47;37.17;;;20.53;;
48006;SDS011;33771;48.180;11.400;2023-03-01T06:10:13;28.23;;;17.30;;
48006;SDS011;33771;48.180;11.400;2023-03-01T06:12:39;29.53;;;17.93;;
48006;SDS011;33771;48.180;11.400;2023-03-01T06:15:06;32.37;;;19.53;;
48006;SDS011;33771;48.180;11.400;2023-03-01T06:17:34;34.30;;;20.50;;
48006;SDS011;33771;48.180;11.400;2023-03-01T06:20:03;39.90;;;19.43;;
48006;SDS011;33771;48.180;11.400;2023-03-01T06:22:30;32.40;;;20.47;;
48006;SDS011;33771;48.180;11.400;2023-03-01T06:24:55;32.80;;;19.07;;
48006;SDS011;33771;48.180;11.400;2023-03-01T06:27:21;35.13;;;19.67;;
48006;SDS011;33771;48.180;11.400;2023-03-01T06:29:46;37.73;;;20.27;;
48006;SDS011;33771;48.180;11.400;2023-03-01T06:32:12;34.40;;;18.50;;
48006;SDS011;33771;48.180;11.400;2023-03-01T06:34:37;32.03;;;19.73;;
48006;SDS011;33771;48.180;11.400;2023-03-01T06:37:06;38.47;;;20.43;;
48006;SDS011;33771;48.180;11.400;2023-03-01T06:39:32;34.53;;;20.00;;
48006;SDS011;33771;48.180;11.400;2023-03-01T06:41:58;31.63;;;18.63;;
48006;SDS011;33771;48.180;11.400;2023-03-01T06:44:24;31.53;;;19.83;;
48006;SDS011;33771;48.180;11.400;2023-03-01T06:46:50;35.37;;;19.03;;
48006;SDS011;33771;48.180;11.400;2023-03-01T06:49:15;31.07;;;19.00;;
48006;SDS011;33771;48.180;11.400;2023-03-01T06:51:42;30.93;;;19.03;;
48006;SDS011;33771;48.180;11.400;2023-03-01T06:54:08;34.73;;;21.17;;
48006;SDS011;33771;48.180;11.400;2023-03-01T06:56:35;36.23;;;19.70;;
48006;SDS011;33771;48.180;11.400;2023-03-01T06:59:00;31.67;;;18.87;;
48006;SDS011;33771;48.180;11.400;2023-03-01T07:01:27;33.03;;;20.83;;
48006;SDS011;33771;48.180;11.400;2023-03-01T07:03:53;31.53;;;18.80;;
48006;SDS011;33771;48.180;11.400;2023-03-01T07:06:19;32.77;;;20.17;;
48006;SDS011;33771;48.180;11.400;2023-03-01T07:08:45;31.53;;;18.53;;
48006;SDS011;33771;48.180;11.400;2023-03-01T07:11:11;29.93;;;19.30;;
48006;SDS011;33771;48.180;11.400;2023-03-01T07:13:37;33.07;;;18.30;;
48006;SDS011;33771;48.180;11.400;2023-03-01T07:16:03;30.10;;;19.43;;
48006;SDS011;33771;48.180;11.400;2023-03-01T07:18:29;38.17;;;19.87;;
48006;SDS011;33771;48.180;11.400;2023-03-01T07:20:54;30.83;;;18.77;;
48006;SDS011;33771;48.180;11.400;2023-03-01T07:23:20;31.67;;;19.27;;
48006;SDS011;33771;48.180;11.400;2023-03-01T07:25:51;33.07;;;19.73;;
48006;SDS011;33771;48.180;11.400;2023-03-01T07:28:20;31.03;;;19.73;;
48006;SDS011;33771;48.180;11.400;2023-03-01T07:30:48;28.80;;;19.03;;
48006;SDS011;33771;48.180;11.400;2023-03-01T07:33:13;41.10;;;23.77;;
48006;SDS011;33771;48.180;11.400;2023-03-01T07:35:39;83.70;;;38.90;;
48006;SDS011;33771;48.180;11.400;2023-03-01T07:38:04;51.87;;;27.80;;
48006;SDS011;33771;48.180;11.400;2023-03-01T07:40:32;50.77;;;26.50;;
48006;SDS011;33771;48.180;11.400;2023-03-01T07:42:58;46.40;;;25.80;;
48006;SDS011;33771;48.180;11.400;2023-03-01T07:45:26;31.60;;;20.03;;
48006;SDS011;33771;48.180;11.400;2023-03-01T07:47:52;29.13;;;18.47;;
48006;SDS011;33771;48.180;11.400;2023-03-01T07:50:18;35.20;;;21.50;;
48006;SDS011;33771;48.180;11.400;2023-03-01T07:52:45;34.17;;;19.60;;
48006;SDS011;33771;48.180;11.400;2023-03-01T07:55:11;32.30;;;19.83;;
48006;SDS011;33771;48.180;11.400;2023-03-01T07:57:37;33.53;;;19.03;;
48006;SDS011;33771;48.180;11.400;2023-03-01T08:00:04;35.13;;;20.00;;
48006;SDS011;33771;48.180;11.400;2023-03-01T08:02:30;33.37;;;20.80;;
48006;SDS011;33771;48.180;11.400;2023-03-01T08:04:56;33.23;;;19.43;;
48006;SDS011;33771;48.180;11.400;2023-03-01T08:07:21;34.53;;;21.07;;
48006;SDS011;33771;48.180;11.400;2023-03-01T08:09:47;33.20;;;20.43;;
48006;SDS011;33771;48.180;11.400;2023-03-01T08:12:13;33.43;;;20.47;;
48006;SDS011;33771;48.180;11.400;2023-03-01T08:14:38;31.17;;;18.63;;
48006;SDS011;33771;48.180;11.400;2023-03-01T08:17:04;34.37;;;19.20;;
48006;SDS011;33771;48.180;11.400;2023-03-01T08:19:29;40.03;;;21.47;;
48006;SDS011;33771;48.180;11.400;2023-03-01T08:21:55;31.60;;;19.53;;
48006;SDS011;33771;48.180;11.400;2023-03-01T08:24:23;34.50;;;20.43;;
48006;SDS011;33771;48.180;11.400;2023-03-01T08:26:48;32.03;;;19.93;;
48006;SDS011;33771;48.180;11.400;2023-03-01T08:29:14;38.17;;;20.40;;
48006;SDS011;33771;48.180;11.400;2023-03-01T08:31:40;30.67;;;19.43;;
48006;SDS011;33771;48.180;11.400;2023-03-01T08:34:10;31.43;;;20.13;;
48006;SDS011;33771;48.180;11.400;2023-03-01T08:36:38;32.67;;;19.57;;
48006;SDS011;33771;48.180;11.400;2023-03-01T08:39:06;34.43;;;20.03;;
48006;SDS011;33771;48.180;11.400;2023-03-01T08:41:33;33.57;;;20.67;;
48006;SDS011;33771;48.180;11.400;2023-03-01T08:43:59;35.33;;;20.10;;
48006;SDS011;33771;48.180;11.400;2023-03-01T08:46:34;32.93;;;20.20;;
48006;SDS011;33771;48.180;11.400;2023-03-01T08:49:05;33.97;;;19.23;;
48006;SDS011;33771;48.180;11.400;2023-03-01T08:51:33;34.63;;;20.43;;
48006;SDS011;33771;48.180;11.400;2023-03-01T08:54:04;32.90;;;20.30;;
48006;SDS011;33771;48.180;11.400;2023-03-01T08:56:32;32.43;;;20.17;;
48006;SDS011;33771;48.180;11.400;2023-03-01T08:58:57;31.10;;;20.60;;
48006;SDS011;33771;48.180;11.400;2023-03-01T09:01:23;32.53;;;20.60;;
48006;SDS011;33771;48.180;11.400;2023-03-01T09:03:48;34.27;;;20.73;;
48006;SDS011;33771;48.180;11.400;2023-03-01T09:06:14;30.97;;;19.27;;
48006;SDS011;33771;48.180;11.400;2023-03-01T09:08:41;36.00;;;17.87;;
48006;SDS011;33771;48.180;11.400;2023-03-01T09:11:09;31.43;;;19.53;;
48006;SDS011;33771;48.180;11.400;2023-03-01T09:13:36;35.07;;;20.27;;
48006;SDS011;33771;48.180;11.400;2023-03-01T09:16:03;33.47;;;19.57;;
48006;SDS011;33771;48.180;11.400;2023-03-01T09:18:29;37.23;;;23.00;;
48006;SDS011;33771;48.180;11.400;2023-03-01T09:21:03;34.43;;;20.10;;
48006;SDS011;33771;48.180;11.400;2023-03-01T09:23:32;33.37;;;19.97;;
48006;SDS011;33771;48.180;11.400;2023-03-01T09:25:59;31.47;;;19.70;;
48006;SDS011;33771;48.180;11.400;2023-03-01T09:28:24;32.77;;;19.50;;
48006;SDS011;33771;48.180;11.400;2023-03-01T09:30:50;36.17;;;19.90;;
48006;SDS011;33771;48.180;11.400;2023-03-01T09:33:15;33.73;;;20.63;;
48006;SDS011;33771;48.180;11.400;2023-03-01T09:35:41;34.53;;;20.40;;
48006;SDS011;33771;48.180;11.400;2023-03-01T09:38:11;34.43;;;19.93;;
48006;SDS011;33771;48.180;11.400;2023-03-01T09:40:41;33.07;;;20.13;;
48006;SDS011;33771;48.180;11.400;2023-03-01T09:43:08;32.83;;;20.00;;
48006;SDS011;33771;48.180;11.400;2023-03-01T09:45:45;41.60;;;19.67;;
48006;SDS011;33771;48.180;11.400;2023-03-01T09:48:16;33.57;;;19.17;;
48006;SDS011;33771;48.180;11.400;2023-03-01T09:50:43;34.30;;;20.33;;
48006;SDS011;33771;48.180;11.400;2023-03-01T09:53:16;35.43;;;20.83;;
48006;SDS011;33771;48.180;11.400;2023-03-01T10:01:31;36.73;;;23.93;;
48006;SDS011;33771;48.180;11.400;2023-03-01T10:04:11;31.57;;;19.97;;
48006;SDS011;33771;48.180;11.400;2023-03-01T10:06:52;36.33;;;19.50;;
48006;SDS011;33771;48.180;11.400;2023-03-01T10:12:02;40.00;;;25.27;;
48006;SDS011;33771;48.180;11.400;2023-03-01T10:17:25;46.97;;;28.43;;
48006;SDS011;33771;48.180;11.400;2023-03-01T10:22:50;37.70;;;23.90;;
48006;SDS011;33771;48.180;11.400;2023-03-01T10:25:23;36.43;;;23.20;;
48006;SDS011;33771;48.180;11.400;2023-03-01T10:28:06;38.90;;;22.37;;
48006;SDS011;33771;48.180;11.400;2023-03-01T10:30:40;35.33;;;20.43;;
48006;SDS011;33771;48.180;11.400;2023-03-01T10:35:42;37.07;;;22.57;;
48006;SDS011;33771;48.180;11.400;2023-03-01T10:38:09;35.30;;;22.40;;
48006;SDS011;33771;48.180;11.400;2023-03-01T10:40:57;34.77;;;21.13;;
48006;SDS011;33771;48.180;11.400;2023-03-01T10:43:41;33.33;;;20.73;;
48006;SDS011;33771;48.180;11.400;2023-03-01T10:46:23;44.63;;;24.57;;
48006;SDS011;33771;48.180;11.400;2023-03-01T10:51:43;36.83;;;22.07;;
48006;SDS011;33771;48.180;11.400;2023-03-01T10:54:30;44.13;;;24.07;;
48006;SDS011;33771;48.180;11.400;2023-03-01T10:57:00;43.63;;;23.10;;
48006;SDS011;33771;48.180;11.400;2023-03-01T10:59:36;35.93;;;21.27;;
48006;SDS011;33771;48.180;11.400;2023-03-01T11:02:12;45.97;;;22.83;;
48006;SDS011;33771;48.180;11.400;2023-03-01T11:07:27;31.70;;;20.97;;
48006;SDS011;33771;48.180;11.400;2023-03-01T11:09:53;29.53;;;20.37;;
48006;SDS011;33771;48.180;11.400;2023-03-01T11:12:20;32.90;;;21.17;;
48006;SDS011;33771;48.180;11.400;2023-03-01T11:14:47;29.97;;;19.83;;
48006;SDS011;33771;48.180;11.400;2023-03-01T11:17:21;34.53;;;22.97;;
48006;SDS011;33771;48.180;11.400;2023-03-01T11:22:37;32.23;;;21.27;;
48006;SDS011;33771;48.180;11.400;2023-03-01T11:25:11;31.87;;;21.40;;
48006;SDS011;33771;48.180;11.400;2023-03-01T11:27:43;33.00;;;21.77;;
48006;SDS011;33771;48.180;11.400;2023-03-01T11:33:15;35.73;;;21.80;;
48006;SDS011;33771;48.180;11.400;2023-03-01T11:35:45;30.10;;;19.93;;
48006;SDS011;33771;48.180;11.400;2023-03-01T11:38:21;32.97;;;21.73;;
48006;SDS011;33771;48.180;11.400;2023-03-01T11:40:50;34.00;;;21.13;;
48006;SDS011;33771;48.180;11.400;2023-03-01T11:46:20;30.57;;;20.97;;
48006;SDS011;33771;48.180;11.400;2023-03-01T11:57:33;33.10;;;21.47;;
48006;SDS011;33771;48.180;11.400;2023-03-01T12:03:20;35.03;;;22.57;;
48006;SDS011;33771;48.180;11.400;2023-03-01T12:06:12;33.07;;;21.67;;
48006;SDS011;33771;48.180;11.400;2023-03-01T12:17:45;29.10;;;20.17;;
48006;SDS011;33771;48.180;11.400;2023-03-01T12:20:50;29.63;;;20.03;;
48006;SDS011;33771;48.180;11.400;2023-03-01T12:26:02;28.20;;;19.47;;
48006;SDS011;33771;48.180;11.400;2023-03-01T12:28:49;33.37;;;22.63;;
48006;SDS011;33771;48.180;11.400;2023-03-01T12:31:38;31.57;;;21.43;;
48006;SDS011;33771;48.180;11.400;2023-03-01T12:37:19;64.03;;;32.77;;
48006;SDS011;33771;48.180;11.400;2023-03-01T12:45:54;120.10;;;54.65;;
48006;SDS011;33771;48.180;11.400;2023-03-01T12:48:53;109.17;;;51.03;;
48006;SDS011;33771;48.180;11.400;2023-03-01T12:51:30;34.27;;;24.10;;
48006;SDS011;33771;48.180;11.400;2023-03-01T12:54:02;30.53;;;19.33;;
48006;SDS011;33771;48.180;11.400;2023-03-01T12:56:39;32.67;;;22.60;;
48006;SDS011;33771;48.180;11.400;2023-03-01T12:59:12;28.90;;;20.63;;
48006;SDS011;33771;48.180;11.400;2023-03-01T13:01:51;28.97;;;18.63;;
48006;SDS011;33771;48.180;11.400;2023-03-01T13:31:07;29.03;;;20.17;;
48006;SDS011;33771;48.180;11.400;2023-03-01T13:46:51;39.13;;;23.83;;
48006;SDS011;33771;48.180;11.400;2023-03-01T13:49:21;52.40;;;31.90;;
48006;SDS011;33771;48.180;11.400;2023-03-01T13:51:49;32.73;;;22.23;;
48006;SDS011;33771;48.180;11.400;2023-03-01T13:54:16;52.80;;;31.13;;
48006;SDS011;33771;48.180;11.400;2023-03-01T13:56:55;42.63;;;24.83;;
48006;SDS011;33771;48.180;11.400;2023-03-01T13:59:23;52.77;;;31.27;;
48006;SDS011;33771;48.180;11.400;2023-03-01T14:01:55;37.77;;;24.83;;
48006;SDS011;33771;48.180;11.400;2023-03-01T14:04:25;45.87;;;27.53;;
48006;SDS011;33771;48.180;11.400;2023-03-01T14:09:42;51.87;;;31.43;;
48006;SDS011;33771;48.180;11.400;2023-03-01T14:12:19;89.30;;;48.93;;
48006;SDS011;33771;48.180;11.400;2023-03-01T14:15:02;53.93;;;32.07;;
48006;SDS011;33771;48.180;11.400;2023-03-01T14:17:47;36.17;;;24.03;;
48006;SDS011;33771;48.180;11.400;2023-03-01T14:20:44;41.53;;;27.03;;
48006;SDS011;33771;48.180;11.400;2023-03-01T14:23:17;31.77;;;20.33;;
48006;SDS011;33771;48.180;11.400;2023-03-01T14:25:49;44.57;;;29.20;;
48006;SDS011;33771;48.180;11.400;2023-03-01T14:28:20;47.83;;;31.27;;
48006;SDS011;33771;48.180;11.400;2023-03-01T14:33:31;33.87;;;22.77;;
48006;SDS011;33771;48.180;11.400;2023-03-01T14:36:00;37.33;;;24.70;;
48006;SDS011;33771;48.180;11.400;2023-03-01T14:41:00;28.63;;;19.00;;
48006;SDS011;33771;48.180;11.400;2023-03-01T14:43:29;41.47;;;26.27;;
48006;SDS011;33771;48.180;11.400;2023-03-01T14:45:56;36.07;;;23.87;;
48006;SDS011;33771;48.180;11.400;2023-03-01T14:48:22;41.83;;;26.50;;
48006;SDS011;33771;48.180;11.400;2023-03-01T14:50:48;44.07;;;28.17;;
48006;SDS011;33771;48.180;11.400;2023-03-01T14:53:20;29.73;;;18.13;;
48006;SDS011;33771;48.180;11.400;2023-03-01T14:55:50;34.10;;;22.23;;
48006;SDS011;33771;48.180;11.400;2023-03-01T14:58:19;24.93;;;18.30;;
48006;SDS011;33771;48.180;11.400;2023-03-01T15:00:57;29.67;;;19.83;;
48006;SDS011;33771;48.180;11.400;2023-03-01T15:03:35;27.07;;;19.27;;
48006;SDS011;33771;48.180;11.400;2023-03-01T15:06:05;27.67;;;18.37;;
48006;SDS011;33771;48.180;11.400;2023-03-01T15:08:33;32.73;;;19.30;;
48006;SDS011;33771;48.180;11.400;2023-03-01T15:13:29;27.80;;;18.70;;
48006;SDS011;33771;48.180;11.400;2023-03-01T15:16:03;31.30;;;18.57;;
48006;SDS011;33771;48.180;11.400;2023-03-01T15:18:32;26.30;;;17.73;;
48006;SDS011;33771;48.180;11.400;2023-03-01T15:21:06;33.20;;;19.20;;
48006;SDS011;33771;48.180;11.400;2023-03-01T15:23:33;27.70;;;17.85;;
48006;SDS011;33771;48.180;11.400;2023-03-01T15:26:00;24.47;;;16.87;;
48006;SDS011;33771;48.180;11.400;2023-03-01T15:28:30;24.77;;;17.17;;
48006;SDS011;33771;48.180;11.400;2023-03-01T15:31:00;27.73;;;17.93;;
48006;SDS011;33771;48.180;11.400;2023-03-01T15:33:46;23.00;;;16.90;;
48006;SDS011;33771;48.180;11.400;2023-03-01T15:39:03;27.57;;;17.87;;
48006;SDS011;33771;48.180;11.400;2023-03-01T15:42:04;25.57;;;17.60;;
48006;SDS011;33771;48.180;11.400;2023-03-01T15:44:27;28.97;;;18.00;;
48006;SDS011;33771;48.180;11.400;2023-03-01T15:46:57;25.83;;;17.15;;
48006;SDS011;33771;48.180;11.400;2023-03-01T15:49:42;30.17;;;17.73;;
48006;SDS011;33771;48.180;11.400;2023-03-01T15:52:11;33.08;;;17.25;;
48006;SDS011;33771;48.180;11.400;2023-03-01T15:55:46;26.97;;;17.83;;
48006;SDS011;33771;48.180;11.400;2023-03-01T15:58:12;27.23;;;17.37;;
48006;SDS011;33771;48.180;11.400;2023-03-01T16:00:40;26.97;;;17.90;;
48006;SDS011;33771;48.180;11.400;2023-03-01T16:03:06;29.30;;;18.87;;
48006;SDS011;33771;48.180;11.400;2023-03-01T16:05:35;32.20;;;18.63;;
48006;SDS011;33771;48.180;11.400;2023-03-01T16:08:01;29.07;;;19.43;;
48006;SDS011;33771;48.180;11.400;2023-03-01T16:10:27;28.30;;;18.53;;
48006;SDS011;33771;48.180;11.400;2023-03-01T16:12:53;29.10;;;18.67;;
48006;SDS011;33771;48.180;11.400;2023-03-01T16:17:48;30.50;;;18.87;;
48006;SDS011;33771;48.180;11.400;2023-03-01T16:20:13;22.30;;;16.23;;
48006;SDS011;33771;48.180;11.400;2023-03-01T16:22:41;22.47;;;15.30;;
48006;SDS011;33771;48.180;11.400;2023-03-01T16:25:10;26.67;;;16.53;;
48006;SDS011;33771;48.180;11.400;2023-03-01T16:27:42;29.63;;;18.07;;
48006;SDS011;33771;48.180;11.400;2023-03-01T16:30:09;27.73;;;16.00;;
48006;SDS011;33771;48.180;11.400;2023-03-01T16:32:39;27.97;;;17.17;;